AirNav   Phillips 66 Aviation Fuel
 
 1252 users online  

T78 Liberty Municipal Airport
Liberty, Texas, USA

GOING TO LIBERTY?


FAA INFORMATION EFFECTIVE 19 JULY 2018

Location

FAA Identifier: T78
Lat/Long: 30-04-40.1000N / 094-41-54.8000W
30-04.668333N / 094-41.913333W
30.0778056 / -94.6985556
(estimated)
Elevation: 69.5 ft. / 21.2 m (surveyed)
Variation: 05E (1995)
From city: 6 miles NE of LIBERTY, TX
Time zone: UTC -5 (UTC -6 during Standard Time)
Zip code: 77575

Airport Operations

Airport use: Open to the public
Activation date: 08/1959
Control tower: no
ARTCC: HOUSTON CENTER
FSS: MONTGOMERY COUNTY FLIGHT SERVICE STATION
FOR FP FILING CALL CXO FSS 1-800-992-7433.
NOTAMs facility: CXO (NOTAM-D service available)
Attendance: 0800-1800
Wind indicator: lighted
Segmented circle: yes
Lights: ACTVT MIRL RY 16/34 - CTAF.
Beacon: white-green (lighted land airport)
Operates sunset to sunrise.

Airport Communications

CTAF: 122.9
HOUSTON APPROACH: 119.7
HOUSTON DEPARTURE: 119.7
BORRN DP: 119.7
DREMR DP: 119.7
INDIE DP: 119.7
KARRR DP: 119.7
LURIC DP: 119.7
MMALT DP: 119.7
STRYA DP: 119.7
STYCK DP: 119.7
WATFO DP: 119.7
WYLSN DP: 119.7

Nearby radio navigation aids

VOR radial/distance  VOR name  Freq  Var
DASr197/7.3DAISETTA VORTAC116.9005E
MHFr358/32.0TRINITY VOR/DME113.6007E
IAHr073/34.4HUMBLE VORTAC116.6005E
BPTr276/36.3BEAUMONT VOR/DME114.5007E
HUBr045/39.3HOBBY VOR/DME117.1005E

 
NDB name  Hdg/Dist  Freq  Var  ID
GOODHUE264/25.336807EGDE --. -.. .
NIXIN074/27.332605EBVP -... ...- .--.
HARDIN COUNTY232/27.552404EHRD .... .-. -..

Airport Services

Fuel available: 100LL JET-A
24 HR SELF-SERVICE FUEL.
Parking: tiedowns
Airframe service: MAJOR
Powerplant service: MAJOR
Bottled oxygen: NONE
Bulk oxygen: NONE

Runway Information

Runway 16/34

Dimensions: 3801 x 75 ft. / 1159 x 23 m
Surface: asphalt, in fair condition
Weight bearing capacity: 
Single wheel: 10.0
Runway edge lights: medium intensity
RUNWAY 16  RUNWAY 34
Latitude: 30-04.971517N30-04.363658N
Longitude: 094-42.001210W094-41.824053W
Elevation: 68.9 ft.68.6 ft.
Traffic pattern: leftleft
Runway heading: 161 magnetic, 166 true341 magnetic, 346 true
Markings: nonprecision, in fair conditionnonprecision, in fair condition
Visual slope indicator: 2-light PAPI on left (3.00 degrees glide path)
Touchdown point: yes, no lightsyes, no lights
Obstructions: 51 ft. trees, 200 ft. from runway, 215 ft. right of centerline
+57 FT TREES 215 FT RT OF RY CENTERLINE FM THLD TO 200 FT.
67 ft. trees, 1248 ft. from runway, 15:1 slope to clear

Airport Ownership and Management from official FAA records

Ownership: Publicly-owned
Owner: CITY OF LIBERTY
1829 SAM HOUSTON
LIBERTY, TX 77575
Phone 936-587-4150
Manager: PHIL ROBERTSON
1829 SAM HOUSTON
LIBERTY, TX 77575
Phone (281) 660-2337

Airport Operational Statistics

Aircraft based on the field: 26
Single engine airplanes: 23
Multi engine airplanes: 1
Ultralights: 2
    
Aircraft operations: avg 120/week *
58% transient general aviation
41% local general aviation
<1% military
* for 12-month period ending 14 November 2016

Additional Remarks

FOR CD CTC HOUSTON APCH AT 281-443-5844 TO CNL IFR CALL 281-443-5888.

Instrument Procedures

NOTE: All procedures below are presented as PDF files. If you need a reader for these files, you should download the free Adobe Reader.

NOT FOR NAVIGATION. Please procure official charts for flight.
FAA instrument procedures published for use from 19 July 2018 at 0901Z to 16 August 2018 at 0900Z.

 
STARs - Standard Terminal Arrivals
HUDZY THREE **CHANGED**   2 pages: [1] [2] (328KB)
OHIIO FOUR   download (294KB)
RIICE EIGHT   2 pages: [1] [2] (548KB)
WHAEL THREE **CHANGED**   download (161KB)
 
IAPs - Instrument Approach Procedures
RNAV (GPS) RWY 16   download (139KB)
VOR-A   download (125KB)
 
Departure Procedures
BLTWY FIVE (RNAV) **NEW**   download (121KB)
BORRN THREE (RNAV)   2 pages: [1] [2] (246KB)
HOODO FIVE (RNAV)   2 pages: [1] [2] (204KB)
INDIE SIX (RNAV) **NEW**   download (148KB)
KARRR FOUR (RNAV)   2 pages: [1] [2] (195KB)
LURIC SIX (RNAV) **NEW**   download (167KB)
MMALT FOUR (RNAV) **NEW**   download (183KB)
STRYA SIX (RNAV) **NEW**   download (155KB)
STYCK SIX (RNAV) **NEW**   download (146KB)
WATFO FOUR (RNAV)   download (138KB)
WYLSN SIX (RNAV) **NEW**   download (133KB)
NOTE: Special Take-Off Minimums/Departure Procedures apply   download

Other nearby airports with instrument procedures:

T00 - Chambers County Airport (19 nm S)
54T - RWJ Airpark (20 nm S)
KHPY - Baytown Airport (22 nm SW)
6R3 - Cleveland Municipal Airport (23 nm NW)
KBMT - Beaumont Municipal Airport (25 nm E)
 
Loc | Ops | Rwys | IFR | FBO | Links
Com | Nav | Svcs | Stats | Notes


 
Area around T78 (Liberty Municipal Airport)
 
Road maps at: MapQuest Bing Google
 
Aerial photo
WARNING: Photo may not be current or correct
Aerial photo of T78 (Liberty Municipal Airport)
Photo by David Lawrence flying a 78 Bellanca/17-30A
Photo taken 08-Nov-2014
looking north.

Do you have a better or more recent aerial photo of Liberty Municipal Airport that you would like to share? If so, please send us your photo.

 
Sectional chart

 
Airport diagram
CAUTION: Diagram may not be current
Diagram of T78 (Liberty Municipal Airport)
 
Airport distance calculator
Flying to Liberty Municipal Airport? Find the distance to fly.

From to T78

Sunrise and sunset
Times for 20-Jul-2018
 Local
(UTC-5)
 Zulu
(UTC)
Morning civil twilight06:0511:05
Sunrise06:3211:32
Sunset20:1901:19
Evening civil twilight20:4501:45

Current date and time
Zulu (UTC)  20-Jul-2018 13:28:07
Local (UTC-5)  20-Jul-2018 08:28:07
 
METAR
K6R3 
23nm NW 
201315Z AUTO 25004KT 5SM BR SCT009 BKN016 26/25 A2998 RMK AO2 T02640246
KBMT 
25nm E 
201315Z AUTO 25006KT 10SM SCT007 SCT012 28/25 A2997 RMK AO2 T02760254
KIAH 
35nm W 
201253Z 25010G15KT 7SM BKN012 28/26 A2996 RMK AO2 SLP143 T02780256
KBPT 
35nm E 
201253Z 24007KT 8SM FEW014 27/26 A2995 RMK AO2 SLP142 T02720256
KEFD 
38nm SW 
201250Z 22008KT 10SM FEW015 28/25 A2998
KHOU 
40nm SW 
201253Z 23009KT 7SM FEW015 27/26 A2996 RMK AO2 SLP149 T02720261
KCXO 
41nm NW 
201253Z 23007KT 10SM BKN015 27/26 A2997 RMK AO2 SLP145 T02670256
KDWH 
44nm W 
201253Z 24008KT 7SM BKN009 27/26 A2997 RMK AO2 SLP145 T02670256
KLVJ 
44nm SW 
201253Z AUTO 26003KT 6SM BR CLR 26/26 A2998 RMK AO2 SLP150 T02610261
TAF
KIAH 
35nm W 
201129Z 2012/2118 22005KT P6SM SCT012 SCT250 TEMPO 2012/2014 BKN012 FM201500 23007KT P6SM FEW025 FEW050 FM202200 19008KT P6SM SKC FM210200 21004KT P6SM FEW012 FM211500 24007KT P6SM FEW025
KBPT 
35nm E 
201120Z 2012/2112 21007KT P6SM SKC FM201500 24009KT P6SM FEW050
KEFD 
38nm SW 
200400Z 2004/2110 23006KT 9999 BKN250 QNH2983INS BECMG 2009/2010 23006KT 9999 SCT015 QNH2993INS BECMG 2011/2012 23009KT 9999 BKN012 QNH2996INS BECMG 2015/2016 23012KT 9999 FEW015 QNH2988INS BECMG 2023/2024 18009KT 9999 FEW025 QNH2988INS TX37/2021Z TN23/2012Z
KHOU 
40nm SW 
201129Z 2012/2112 20007KT P6SM SCT250 FM201500 23008KT P6SM FEW025 FEW050 FM202200 19008KT P6SM SKC FM210200 21004KT P6SM FEW012
KCXO 
41nm NW 
201129Z 2012/2112 22006KT P6SM BKN012 TEMPO 2012/2014 BKN009 FM201500 22007KT P6SM FEW025 FEW050 FM210200 19004KT P6SM FEW012
NOTAMs
Click for the latest NOTAMs
NOTAMs are issued by the DoD/FAA and will open in a separate window not controlled by AirNav.

 

 
 

FBO, Fuel Providers, and Aircraft Ground Support

  
 Business Name 
 
 Contact 
 
 Services / Description 
 
Fuel Prices
 
Comments
  
Liberty Municipal Airport 281-660-2337
936-336-3684
[web site]
Aviation fuel, Aircraft parking (ramp or tiedown), Restrooms
More info and photos of Liberty Municipal Airport
independent
100LL Jet A
SS $3.80 $2.80 
 Updated 10-May-2018
 
   4 read write
SS=Self service
Update Fuel Prices
 

Would you like to see your business listed on this page?

 If your business provides an interesting product or service to pilots, flight crews, aircraft, or users of the Liberty Municipal Airport, you should consider listing it here.  To start the listing process, click on the button below
 
Add a business
 

Other Pages about Liberty Municipal Airport

www.cityofliberty.org/...
 
Update a link
 
Copyright © AirNav, LLC. All rights reserved. Privacy Policy  Contact